createdAt,value
2023-03-17T00:19:32.939Z,8.8
2023-03-17T00:29:35.140Z,8.9
2023-03-17T00:39:37.756Z,9.1
2023-03-17T00:49:40.329Z,8.9
2023-03-17T00:59:42.441Z,8.9
2023-03-17T01:09:44.817Z,8.9
2023-03-17T01:19:47.438Z,9
2023-03-17T01:29:49.232Z,9
2023-03-17T01:39:51.496Z,9
2023-03-17T01:49:53.605Z,9
2023-03-17T01:59:56.054Z,9.1
2023-03-17T02:09:58.535Z,9.1
2023-03-17T02:20:00.956Z,9
2023-03-17T02:30:02.652Z,9
2023-03-17T02:40:04.519Z,8.9
2023-03-17T02:50:07.016Z,8.7
2023-03-17T03:10:10.863Z,8.5
2023-03-17T03:20:12.977Z,8.2
2023-03-17T03:30:15.589Z,8.4
2023-03-17T03:40:17.513Z,8.4
2023-03-17T03:50:19.281Z,8.3
2023-03-17T04:00:21.184Z,8.1
2023-03-17T04:10:23.432Z,8.2
2023-03-17T04:20:25.025Z,7.8
2023-03-17T04:30:27.669Z,7.7
2023-03-17T04:40:29.735Z,7.8
2023-03-17T04:50:32.237Z,7.7
2023-03-17T05:00:33.626Z,7.8
2023-03-17T05:10:35.391Z,7.8
2023-03-17T05:20:37.336Z,7.7
2023-03-17T05:30:39.110Z,7.6
2023-03-17T05:40:41.520Z,7.9
2023-03-17T05:50:43.592Z,7.7
2023-03-17T06:00:46.170Z,8
2023-03-17T06:10:48.086Z,8.3
2023-03-17T06:20:50.547Z,8.1
2023-03-17T06:30:52.788Z,8.8
2023-03-17T06:40:55.044Z,9.2
2023-03-17T06:50:57.088Z,9.8
2023-03-17T07:00:59.676Z,10.1
2023-03-17T07:11:02.241Z,10.7
2023-03-17T07:21:04.109Z,11.2
2023-03-17T07:31:06.253Z,11.3
2023-03-17T07:41:08.231Z,12
2023-03-17T08:01:12.870Z,12.6
2023-03-17T08:11:15.638Z,13.1
2023-03-17T08:21:17.051Z,13
2023-03-17T08:31:19.619Z,13.3
2023-03-17T08:41:21.557Z,13.2
2023-03-17T08:51:24.650Z,13.1
2023-03-17T09:01:26.404Z,13.7
2023-03-17T09:11:28.777Z,14.3
2023-03-17T09:21:31.380Z,14.5
2023-03-17T09:31:33.682Z,14.5
2023-03-17T09:41:35.572Z,15.2
2023-03-17T09:51:37.438Z,14.7
2023-03-17T10:01:39.233Z,14.7
2023-03-17T10:11:40.962Z,15.5
2023-03-17T10:21:42.621Z,15.2
2023-03-17T10:31:44.574Z,15.6
2023-03-17T10:41:46.832Z,16.5
2023-03-17T10:51:49.311Z,17
2023-03-17T11:01:51.367Z,16.4
2023-03-17T11:11:53.713Z,16.6
2023-03-17T11:21:55.647Z,15.9
2023-03-17T11:31:57.856Z,16
2023-03-17T11:42:00.353Z,16.5
2023-03-17T11:52:02.981Z,16.5
2023-03-17T12:02:04.760Z,16.6
2023-03-17T12:12:06.396Z,17.1
2023-03-17T12:22:08.968Z,17.1
2023-03-17T12:32:11.176Z,17.3
2023-03-17T12:42:12.910Z,17.3
2023-03-17T12:52:14.988Z,17.5
2023-03-17T13:02:17.593Z,17.5
2023-03-17T13:12:19.363Z,17.3
2023-03-17T13:22:21.897Z,17.4
2023-03-17T13:32:24.006Z,17.4
2023-03-17T13:42:26.229Z,17.4
2023-03-17T13:52:28.613Z,17.3
2023-03-17T14:02:30.714Z,17.3
2023-03-17T14:12:32.703Z,17.1
2023-03-17T14:22:34.916Z,17.2
2023-03-17T14:32:36.799Z,17.1
2023-03-17T14:42:39.137Z,17.1
2023-03-17T14:52:40.955Z,17
2023-03-17T15:02:43.544Z,17.1
2023-03-17T15:12:45.628Z,16.9
2023-03-17T15:22:48.025Z,16.9
2023-03-17T15:32:50.616Z,17
2023-03-17T15:42:53.115Z,16.8
2023-03-17T15:52:55.270Z,16.4
2023-03-17T16:02:57.103Z,16.2
2023-03-17T16:12:59.442Z,16
2023-03-17T16:23:01.338Z,16
2023-03-17T16:33:03.577Z,15.8
2023-03-17T16:43:10.399Z,15.8
2023-03-17T16:53:07.561Z,15.7
2023-03-17T17:03:09.553Z,15.4
2023-03-17T17:13:11.316Z,15.2
2023-03-17T17:23:13.294Z,15
2023-03-17T17:33:15.645Z,14.8
2023-03-17T17:43:18.097Z,14.5
2023-03-17T17:53:20.642Z,14.4
2023-03-17T18:03:22.690Z,14.3
2023-03-17T18:13:24.865Z,14.1
2023-03-17T18:33:29.082Z,13.9
2023-03-17T18:43:31.033Z,13.7
2023-03-17T18:53:33.628Z,13.6
2023-03-17T19:03:35.370Z,13.7
2023-03-17T19:13:36.916Z,13.4
2023-03-17T19:23:39.076Z,13.3
2023-03-17T19:33:40.922Z,13.2
2023-03-17T19:43:42.730Z,13.1
2023-03-17T19:53:44.551Z,13.1
2023-03-17T20:03:47.050Z,13.1
2023-03-17T20:13:49.439Z,13.1
2023-03-17T20:23:51.133Z,13
2023-03-17T20:33:53.403Z,13
2023-03-17T20:43:55.740Z,12.9
2023-03-17T20:53:58.239Z,13
2023-03-17T20:54:05.158Z,13
2023-03-17T21:04:07.784Z,13.1
2023-03-17T21:14:09.521Z,13.1
2023-03-17T21:24:11.948Z,12.9
2023-03-17T21:34:13.922Z,12.7
2023-03-17T21:44:16.334Z,12.9
2023-03-17T21:54:18.234Z,12.7
2023-03-17T22:04:20.639Z,12.6
2023-03-17T22:14:22.984Z,12.4
2023-03-17T22:24:25.378Z,12.3
2023-03-17T22:34:27.856Z,12.2
2023-03-17T22:44:30.065Z,12.2
2023-03-17T22:54:32.304Z,12.1
2023-03-17T23:04:34.926Z,12.2
2023-03-17T23:14:36.794Z,12.2
2023-03-17T23:24:38.562Z,12.2
2023-03-17T23:34:41.007Z,12.2
2023-03-17T23:44:43.328Z,12
2023-03-17T23:54:45.446Z,12
